»·PEaware :: N143VT 49X-L52

N143VT :: 49X-L52

FLIGHT INFORMATION

Flight Status: Arrived
Operator: Privately registered:
United States
More flights under this callsign
Pilot: Anonymous 16492 (16492)
Aircraft: Unknown
(EPIC)
More flights by this aircraft type
Origin: 49X Chemehuevi Valley
United States
Destination: L52 Oceano Co
United States
More flights between these airports :: More routes between these airports
Route: +EED V12 PMD GMN FLW
File this flight plan on PilotEdge
Remarks:
Altitude:
(Current/Filed)
22,000ft
Speed:
(Current/Filed)
300kts
Departed: 19-Oct-17 05:29 PM
Arrived: 19-Oct-17 06:50 PM
Distance/Time
Traveled:
307nm/1:21
Distance/Time
To Go:
Arrived

Flight Plot

Page will automatically refresh every two minutes.

Flight plan parsing failed; only flown route is shown


Map Options




Map Legend


Flown Route
Filed Route
Departure Airport
Arrival Airport
Navaid (VOR, NDB)
Fix

Horizontal Profiles

Position Reports

Time Latitude Longitude Heading Altitude Ground
Speed
19-Oct-17 17:23 34.529012 -114.430283 1 614ft 0kts
19-Oct-17 17:24 34.529012 -114.430283 1 614ft 0kts
19-Oct-17 17:25 34.529012 -114.430283 1 614ft 0kts
19-Oct-17 17:26 34.529012 -114.430283 1 614ft 0kts
19-Oct-17 17:27 34.529012 -114.430283 1 614ft 0kts
19-Oct-17 17:28 34.529012 -114.430283 1 614ft 0kts
19-Oct-17 17:29 34.529012 -114.430283 1 614ft 0kts
19-Oct-17 17:30 34.529012 -114.430283 1 614ft 0kts
19-Oct-17 17:31 34.529020 -114.430283 1 614ft 0kts
19-Oct-17 17:32 34.531016 -114.430999 359 614ft 17kts
19-Oct-17 17:33 34.535567 -114.431016 328 614ft 13kts
19-Oct-17 17:34 34.534580 -114.431943 177 614ft 57kts
19-Oct-17 17:35 34.495300 -114.432167 205 1662ft 169kts
19-Oct-17 17:36 34.508903 -114.471919 351 4901ft 180kts
19-Oct-17 17:37 34.562313 -114.474189 358 7019ft 235kts
19-Oct-17 17:38 34.637289 -114.474227 358 6995ft 295kts
19-Oct-17 17:39 34.720834 -114.475362 345 6987ft 303kts
19-Oct-17 17:40 34.754072 -114.528588 287 10928ft 185kts
19-Oct-17 17:41 34.764981 -114.590205 274 12724ft 189kts
19-Oct-17 17:42 34.769029 -114.653765 271 14407ft 190kts
19-Oct-17 17:43 34.771136 -114.717610 270 15931ft 191kts
19-Oct-17 17:44 34.772712 -114.781784 270 17306ft 192kts
19-Oct-17 17:45 34.774122 -114.846245 270 18571ft 193kts
19-Oct-17 17:46 34.775466 -114.910968 270 19718ft 194kts
19-Oct-17 17:47 34.776772 -114.976371 270 20770ft 195kts
19-Oct-17 17:48 34.778046 -115.041898 270 21734ft 195kts
19-Oct-17 17:49 34.779369 -115.111490 271 21994ft 227kts
19-Oct-17 17:50 34.780891 -115.193722 271 21990ft 257kts
19-Oct-17 17:51 34.782460 -115.282347 271 21989ft 269kts
19-Oct-17 17:52 34.783999 -115.373603 271 21987ft 274kts
19-Oct-17 17:53 34.785479 -115.466175 271 21995ft 276kts
19-Oct-17 17:54 34.786889 -115.558972 271 22046ft 275kts
19-Oct-17 17:55 34.788216 -115.650720 271 22098ft 274kts
19-Oct-17 17:56 34.789484 -115.743063 271 22129ft 276kts
19-Oct-17 17:57 34.790693 -115.836134 271 22129ft 277kts
19-Oct-17 17:58 34.791834 -115.929664 271 22128ft 277kts
19-Oct-17 17:59 34.792900 -116.022869 270 22127ft 277kts
19-Oct-17 18:00 34.793893 -116.116253 271 22126ft 277kts
19-Oct-17 18:01 34.794821 -116.209860 271 22117ft 277kts
19-Oct-17 18:02 34.795672 -116.303377 271 22095ft 277kts
19-Oct-17 18:03 34.796453 -116.396984 271 22073ft 278kts
19-Oct-17 18:04 34.793812 -116.490298 265 22069ft 277kts
19-Oct-17 18:05 34.785199 -116.583208 264 22068ft 277kts
19-Oct-17 18:06 34.776209 -116.675440 264 22074ft 277kts
19-Oct-17 18:07 34.767050 -116.768196 264 22074ft 278kts
19-Oct-17 18:08 34.757783 -116.861197 264 22074ft 278kts
19-Oct-17 18:09 34.748471 -116.954103 264 22092ft 277kts
19-Oct-17 18:10 34.739126 -117.046622 264 22123ft 276kts
19-Oct-17 18:11 34.729761 -117.138362 264 22156ft 274kts
19-Oct-17 18:12 34.720350 -117.229816 264 22161ft 273kts
19-Oct-17 18:13 34.710894 -117.320991 264 22161ft 273kts
19-Oct-17 18:14 34.701385 -117.412043 264 22160ft 273kts
19-Oct-17 18:15 34.691802 -117.503235 264 22160ft 273kts
19-Oct-17 18:16 34.682161 -117.594380 264 22159ft 273kts
19-Oct-17 18:17 34.672511 -117.684889 263 22155ft 273kts
19-Oct-17 18:18 34.662724 -117.776112 263 22144ft 274kts
19-Oct-17 18:19 34.652790 -117.867893 263 22139ft 274kts
19-Oct-17 18:20 34.642840 -117.959183 263 22156ft 274kts
19-Oct-17 18:21 34.632956 -118.050560 267 22163ft 273kts
19-Oct-17 18:22 34.648566 -118.139834 283 22168ft 273kts
19-Oct-17 18:23 34.667574 -118.228619 283 22161ft 273kts
19-Oct-17 18:24 34.686368 -118.315036 283 22153ft 273kts
19-Oct-17 18:25 34.705664 -118.403827 283 22151ft 273kts
19-Oct-17 18:26 34.724924 -118.492764 283 22152ft 272kts
19-Oct-17 18:27 34.742526 -118.574335 283 22165ft 272kts
19-Oct-17 18:28 34.761299 -118.661672 283 22212ft 271kts
19-Oct-17 18:29 34.780221 -118.749995 283 22248ft 272kts
19-Oct-17 18:30 34.799155 -118.838770 283 22252ft 273kts
19-Oct-17 18:31 34.823123 -118.926429 288 22206ft 276kts
19-Oct-17 18:32 34.848807 -119.014791 288 22158ft 279kts
19-Oct-17 18:33 34.874629 -119.103550 288 22136ft 281kts
19-Oct-17 18:34 34.900813 -119.193833 288 21838ft 289kts
19-Oct-17 18:35 34.927713 -119.286779 288 20026ft 295kts
19-Oct-17 18:36 34.954901 -119.381127 288 18219ft 298kts
19-Oct-17 18:37 34.982192 -119.476146 288 16413ft 300kts
19-Oct-17 18:38 35.009517 -119.571642 288 14607ft 300kts
19-Oct-17 18:39 35.035341 -119.662078 287 12789ft 264kts
19-Oct-17 18:40 35.058295 -119.742789 287 11008ft 248kts
19-Oct-17 18:41 35.080562 -119.821340 287 9213ft 243kts
19-Oct-17 18:42 35.092555 -119.893192 271 8981ft 194kts
19-Oct-17 18:43 35.093993 -119.954858 270 8987ft 181kts
19-Oct-17 18:44 35.094990 -120.019759 270 8989ft 199kts
19-Oct-17 18:45 35.095899 -120.088366 270 8991ft 205kts
19-Oct-17 18:46 35.096744 -120.158082 270 8893ft 211kts
19-Oct-17 18:47 35.097640 -120.231884 271 7088ft 212kts
19-Oct-17 18:48 35.098421 -120.300463 272 5282ft 196kts
19-Oct-17 18:49 35.098942 -120.352311 272 4392ft 156kts
19-Oct-17 18:50 35.099318 -120.399913 271 4412ft 143kts
19-Oct-17 18:51 35.098276 -120.447922 253 4402ft 192kts
19-Oct-17 18:52 35.077547 -120.519782 252 2827ft 242kts
19-Oct-17 18:53 35.069913 -120.585611 335 2237ft 140kts
19-Oct-17 18:54 35.090593 -120.602171 302 797ft 96kts
19-Oct-17 18:55 35.101587 -120.622410 304 17ft 3kts
19-Oct-17 18:56 35.103190 -120.624072 215 17ft 0kts
19-Oct-17 18:57 35.103190 -120.624072 215 17ft 0kts
19-Oct-17 18:58 35.103190 -120.624072 215 17ft 0kts
19-Oct-17 18:59 35.103190 -120.624072 215 17ft 0kts
19-Oct-17 19:00 35.103190 -120.624072 215 17ft 0kts
19-Oct-17 19:01 35.103190 -120.624072 215 17ft 0kts
19-Oct-17 19:02 35.103190 -120.624072 215 17ft 0kts
19-Oct-17 19:03 35.103190 -120.624072 215 17ft 0kts
19-Oct-17 19:04 35.103190 -120.624072 215 17ft 0kts
19-Oct-17 19:05 35.103190 -120.624072 215 17ft 0kts
19-Oct-17 19:06 35.103190 -120.624072 215 17ft 0kts
19-Oct-17 19:07 35.103190 -120.624072 215 17ft 0kts

Navigation Log

Ident Type
Flight plan parsing failed, navigation log unavailable